createdAt,value
2022-11-01T00:03:29.106Z,99098.44
2022-11-01T00:09:31.576Z,99097.88
2022-11-01T00:15:33.451Z,99104.38
2022-11-01T00:22:19.431Z,99096.97
2022-11-01T00:28:21.340Z,99085.16
2022-11-01T00:34:23.354Z,99075.88
2022-11-01T00:40:26.193Z,99060.84
2022-11-01T00:46:28.179Z,99059.00
2022-11-01T00:52:30.050Z,99064.22
2022-11-01T00:58:32.659Z,99057.47
2022-11-01T01:10:55.480Z,99063.19
2022-11-01T01:17:06.842Z,99060.28
2022-11-01T01:23:09.092Z,99061.03
2022-11-01T01:29:11.080Z,99043.75
2022-11-01T01:35:13.101Z,99034.34
2022-11-01T01:41:33.237Z,99026.50
2022-11-01T01:48:16.297Z,99014.22
2022-11-01T01:54:18.541Z,99015.34
2022-11-01T02:00:20.834Z,99005.63
2022-11-01T02:12:36.230Z,99005.84
2022-11-01T02:19:01.331Z,99002.06
2022-11-01T02:25:42.636Z,99006.34
2022-11-01T02:31:56.452Z,98992.22
2022-11-01T02:38:08.885Z,98999.09
2022-11-01T02:44:18.896Z,99002.84
2022-11-01T02:50:21.352Z,99000.34
2022-11-01T02:56:23.646Z,98988.53
2022-11-01T03:02:40.084Z,98994.97
2022-11-01T03:08:51.798Z,99000.88
2022-11-01T03:15:26.434Z,98994.38
2022-11-01T03:21:54.534Z,98982.59
2022-11-01T03:28:00.469Z,98965.78
2022-11-01T03:34:07.178Z,98957.47
2022-11-01T03:40:13.350Z,98949.72
2022-11-01T03:46:16.540Z,98946.13
2022-11-01T03:52:18.516Z,98970.66
2022-11-01T03:58:20.433Z,98975.66
2022-11-01T04:04:27.806Z,98967.44
2022-11-01T04:10:30.349Z,98975.81
2022-11-01T04:16:51.267Z,98970.88
2022-11-01T04:22:53.147Z,98961.97
2022-11-01T04:28:58.361Z,98960.47
2022-11-01T04:35:00.337Z,98975.53
2022-11-01T04:41:02.266Z,98970.06
2022-11-01T04:47:04.289Z,98985.38
2022-11-01T04:53:06.906Z,98975.72
2022-11-01T04:59:08.826Z,98979.56
2022-11-01T05:05:13.038Z,99001.44
2022-11-01T05:11:14.928Z,98993.91
2022-11-01T05:17:18.227Z,99015.09
2022-11-01T05:23:22.933Z,99027.78
2022-11-01T05:29:32.830Z,99033.56
2022-11-01T05:35:37.477Z,99030.13
2022-11-01T05:41:40.614Z,99017.16
2022-11-01T05:47:43.886Z,99038.41
2022-11-01T05:53:49.100Z,99029.31
2022-11-01T05:59:51.045Z,99047.88
2022-11-01T06:05:53.097Z,99048.19
2022-11-01T06:11:54.991Z,99049.63
2022-11-01T06:18:01.318Z,99055.13
2022-11-01T06:24:03.665Z,99053.28
2022-11-01T06:30:06.328Z,99052.34
2022-11-01T06:36:08.485Z,99050.03
2022-11-01T06:42:10.655Z,99060.97
2022-11-01T06:48:12.577Z,99061.53
2022-11-01T06:54:14.759Z,99079.16
2022-11-01T07:00:16.867Z,99076.59
2022-11-01T07:06:19.821Z,99085.28
2022-11-01T07:12:21.722Z,99093.81
2022-11-01T07:18:23.668Z,99097.44
2022-11-01T07:24:25.571Z,99111.94
2022-11-01T07:30:28.426Z,99114.63
2022-11-01T07:36:30.483Z,99131.97
2022-11-01T07:42:32.575Z,99134.84
2022-11-01T07:48:36.835Z,99134.13
2022-11-01T07:54:41.903Z,99136.03
2022-11-01T08:00:45.190Z,99142.94
2022-11-01T08:14:22.293Z,99138.56
2022-11-01T08:20:27.481Z,99146.81
2022-11-01T08:26:29.517Z,99159.13
2022-11-01T08:32:31.544Z,99155.94
2022-11-01T08:38:33.770Z,99168.75
2022-11-01T08:44:41.279Z,99161.94
2022-11-01T08:51:03.230Z,99176.19
2022-11-01T08:57:07.120Z,99170.03
2022-11-01T09:03:09.080Z,99181.03
2022-11-01T09:09:11.951Z,99168.78
2022-11-01T09:15:14.147Z,99188.59
2022-11-01T09:21:17.118Z,99192.53
2022-11-01T09:33:49.544Z,99184.03
2022-11-01T09:39:57.442Z,99189.56
2022-11-01T09:46:07.834Z,99199.97
2022-11-01T09:52:25.537Z,99207.38
2022-11-01T09:58:58.938Z,99229.63
2022-11-01T10:05:34.124Z,99218.09
2022-11-01T10:12:24.310Z,99227.25
2022-11-01T10:18:33.214Z,99239.25
2022-11-01T10:24:59.111Z,99239.94
2022-11-01T10:31:17.274Z,99247.00
2022-11-01T10:37:29.646Z,99254.97
2022-11-01T10:43:50.278Z,99249.31
2022-11-01T10:50:15.681Z,99253.78
2022-11-01T10:56:37.178Z,99250.66
2022-11-01T11:02:45.697Z,99246.25
2022-11-01T11:08:53.373Z,99250.09
2022-11-01T11:15:15.916Z,99253.38
2022-11-01T11:21:22.179Z,99251.13
2022-11-01T11:27:33.749Z,99264.31
2022-11-01T11:33:37.245Z,99250.97
2022-11-01T11:39:40.859Z,99252.28
2022-11-01T11:45:43.218Z,99262.56
2022-11-01T11:51:46.800Z,99262.41
2022-11-01T11:57:54.847Z,99263.91
2022-11-01T12:04:12.368Z,99272.13
2022-11-01T12:10:34.106Z,99285.81
2022-11-01T12:16:45.644Z,99292.38
2022-11-01T12:23:45.990Z,99277.16
2022-11-01T12:30:15.314Z,99288.41
2022-11-01T12:36:27.803Z,99298.13
2022-11-01T12:43:29.980Z,99295.00
2022-11-01T12:50:01.516Z,99299.19
2022-11-01T12:56:03.511Z,99302.19
2022-11-01T13:02:08.446Z,99303.16
2022-11-01T13:15:31.226Z,99303.13
2022-11-01T13:22:06.982Z,99303.84
2022-11-01T13:28:34.200Z,99304.16
2022-11-01T13:35:29.220Z,99304.97
2022-11-01T13:41:48.458Z,99308.97
2022-11-01T13:47:56.926Z,99317.78
2022-11-01T13:54:15.268Z,99318.94
2022-11-01T14:00:45.937Z,99324.75
2022-11-01T14:07:11.014Z,99318.06
2022-11-01T14:13:28.818Z,99319.53
2022-11-01T14:19:30.809Z,99332.31
2022-11-01T14:25:39.330Z,99323.91
2022-11-01T14:31:46.224Z,99331.75
2022-11-01T14:37:53.549Z,99319.78
2022-11-01T14:50:57.478Z,99343.59
2022-11-01T14:56:59.909Z,99347.97
2022-11-01T15:10:48.495Z,99357.53
2022-11-01T15:16:52.060Z,99361.13
2022-11-01T15:22:59.201Z,99362.59
2022-11-01T15:29:04.957Z,99364.03
2022-11-01T15:42:16.380Z,99365.50
2022-11-01T15:56:18.545Z,99371.34
2022-11-01T16:02:35.314Z,99376.41
2022-11-01T16:08:49.119Z,99373.66
2022-11-01T16:15:18.224Z,99380.38
2022-11-01T16:21:22.713Z,99393.31
2022-11-01T16:27:28.414Z,99400.94
2022-11-01T16:33:35.797Z,99407.38
2022-11-01T16:39:37.844Z,99418.66
2022-11-01T16:45:39.825Z,99422.22
2022-11-01T16:51:42.442Z,99430.31
2022-11-01T16:57:47.256Z,99446.06
2022-11-01T17:03:50.124Z,99442.28
2022-11-01T17:09:52.415Z,99445.78
2022-11-01T17:15:54.543Z,99432.00
2022-11-01T17:21:58.907Z,99449.25
2022-11-01T17:28:01.540Z,99459.13
2022-11-01T17:34:49.263Z,99461.47
2022-11-01T17:40:51.967Z,99460.38
2022-11-01T17:46:53.902Z,99462.47
2022-11-01T17:52:55.791Z,99463.91
2022-11-01T18:05:23.413Z,99461.56
2022-11-01T18:24:21.258Z,99472.47
2022-11-01T18:30:24.380Z,99462.56
2022-11-01T18:37:26.360Z,99471.50
2022-11-01T18:43:33.552Z,99476.69
2022-11-01T18:49:35.711Z,99482.28
2022-11-01T18:55:39.397Z,99482.91
2022-11-01T19:01:41.560Z,99473.56
2022-11-01T19:08:09.585Z,99480.75
2022-11-01T19:14:13.313Z,99495.03
2022-11-01T19:20:27.934Z,99489.69
2022-11-01T19:26:39.106Z,99507.63
2022-11-01T19:32:41.135Z,99518.03
2022-11-01T19:38:45.116Z,99517.13
2022-11-01T19:44:47.338Z,99523.22
2022-11-01T19:50:49.642Z,99522.72
2022-11-01T19:56:51.577Z,99521.66
2022-11-01T20:02:58.510Z,99524.63
2022-11-01T20:09:26.088Z,99531.41
2022-11-01T20:15:28.040Z,99529.41
2022-11-01T20:21:30.132Z,99538.69
2022-11-01T20:27:32.081Z,99549.38
2022-11-01T20:33:34.533Z,99551.59
2022-11-01T20:39:36.640Z,99553.72
2022-11-01T20:45:41.281Z,99560.06
2022-11-01T20:51:44.714Z,99567.25
2022-11-01T20:57:47.169Z,99576.84
2022-11-01T21:03:49.416Z,99579.72
2022-11-01T21:09:51.800Z,99589.28
2022-11-01T21:15:57.118Z,99594.53
2022-11-01T21:21:59.555Z,99591.25
2022-11-01T21:28:11.418Z,99591.72
2022-11-01T21:34:13.475Z,99590.75
2022-11-01T21:40:30.368Z,99592.78
2022-11-01T21:46:35.966Z,99597.97
2022-11-01T21:52:41.314Z,99591.41
2022-11-01T21:58:43.551Z,99592.41
2022-11-01T22:04:45.972Z,99590.75
2022-11-01T22:11:00.457Z,99580.44
2022-11-01T22:17:02.848Z,99576.03
2022-11-01T22:23:05.229Z,99571.94
2022-11-01T22:29:07.470Z,99565.53
2022-11-01T22:35:12.600Z,99549.72
2022-11-01T22:41:31.585Z,99554.88
2022-11-01T22:47:35.458Z,99564.09
2022-11-01T22:53:37.416Z,99561.47
2022-11-01T22:59:49.552Z,99562.16
2022-11-01T23:06:01.081Z,99566.88
2022-11-01T23:12:21.964Z,99561.13
2022-11-01T23:18:30.384Z,99553.03
2022-11-01T23:24:33.065Z,99548.88
2022-11-01T23:30:36.061Z,99541.28
2022-11-01T23:36:38.710Z,99536.38
2022-11-01T23:42:43.687Z,99537.03
2022-11-01T23:48:46.216Z,99524.81
2022-11-01T23:54:48.126Z,99535.69
